Time;durP1;ratioP1;P1;durP2;ratioP2;P2;SDS_P1;SDS_P2;PMS_P1;PMS_P2;Temp;Humidity;BMP_temperature;BMP_pressure;BME280_temperature;BME280_humidity;BME280_pressure;Samples;Min_cycle;Max_cycle;Signal;HPM_P1;HPM_P2
2022/06/01 00:01:52;;;;;;;0.00;0.00;;;17.10;99.90;;;;;;4964808;29;20027;-66
2022/06/01 00:04:19;;;;;;;0.00;0.00;;;17.20;99.90;;;;;;4964363;29;20296;-67
2022/06/01 00:06:45;;;;;;;0.00;0.00;;;17.10;99.90;;;;;;4947194;29;20019;-66
2022/06/01 00:09:12;;;;;;;0.00;0.00;;;17.10;99.90;;;;;;4947306;29;20337;-66
2022/06/01 00:11:38;;;;;;;0.00;0.00;;;17.10;99.90;;;;;;4946785;29;20015;-66
2022/06/01 00:14:04;;;;;;;0.00;0.00;;;17.20;99.90;;;;;;4964639;29;20030;-67
2022/06/01 00:16:30;;;;;;;0.00;0.00;;;17.20;99.90;;;;;;4947047;29;20019;-66
2022/06/01 00:18:56;;;;;;;0.00;0.00;;;17.20;99.90;;;;;;4964532;29;20042;-66
2022/06/01 00:21:22;;;;;;;0.00;0.00;;;17.20;99.90;;;;;;4964760;29;20039;-66
2022/06/01 00:23:48;;;;;;;0.00;0.00;;;17.20;99.90;;;;;;4964173;29;20027;-66
2022/06/01 00:26:14;;;;;;;0.00;0.00;;;17.20;99.90;;;;;;4964553;29;20019;-66
2022/06/01 00:28:39;;;;;;;0.00;0.00;;;17.20;99.90;;;;;;4964095;29;20325;-66
2022/06/01 00:33:49;;;;;;;0.00;0.00;;;17.20;99.90;;;;;;4963737;29;20127;-66
2022/06/01 00:36:14;;;;;;;0.00;0.00;;;17.20;99.90;;;;;;4964438;29;20027;-66
2022/06/01 00:38:40;;;;;;;0.00;0.00;;;17.10;99.90;;;;;;4963982;29;20050;-66
2022/06/01 00:41:06;;;;;;;0.00;0.00;;;17.10;99.90;;;;;;4964105;29;20141;-66
2022/06/01 00:43:44;;;;;;;0.00;0.00;;;17.10;99.90;;;;;;4964027;29;20153;-67
2022/06/01 00:46:10;;;;;;;0.00;0.00;;;17.10;99.90;;;;;;4947287;29;20034;-66
2022/06/01 00:48:39;;;;;;;0.00;0.00;;;17.10;99.90;;;;;;4963988;29;20126;-67
2022/06/01 00:51:07;;;;;;;0.00;0.00;;;17.10;99.90;;;;;;4964047;29;20034;-67
2022/06/01 00:53:37;;;;;;;0.00;0.00;;;17.10;99.90;;;;;;4963881;29;20031;-66
2022/06/01 00:56:14;;;;;;;0.00;0.00;;;17.10;99.90;;;;;;4964157;29;20031;-66
2022/06/01 00:58:42;;;;;;;0.00;0.00;;;17.00;99.90;;;;;;4946772;29;20042;-66
2022/06/01 01:01:16;;;;;;;0.00;0.00;;;17.00;99.90;;;;;;4967380;29;20035;-66
2022/06/01 01:03:45;;;;;;;0.00;0.00;;;17.00;99.90;;;;;;4967296;29;20071;-66
2022/06/01 01:06:16;;;;;;;0.00;0.00;;;17.00;99.90;;;;;;4967866;29;20059;-67
2022/06/01 01:08:43;;;;;;;0.00;0.00;;;17.00;99.90;;;;;;4967328;29;20034;-67
2022/06/01 01:11:13;;;;;;;0.00;0.00;;;17.00;99.90;;;;;;4967595;29;20313;-66
2022/06/01 01:13:43;;;;;;;0.00;0.00;;;17.00;99.90;;;;;;4967147;29;20034;-64
2022/06/01 01:16:10;;;;;;;0.00;0.00;;;17.00;99.90;;;;;;4950337;29;20030;-66
2022/06/01 01:18:39;;;;;;;0.00;0.00;;;17.00;99.90;;;;;;4949978;29;20030;-66
2022/06/01 01:21:13;;;;;;;0.00;0.00;;;16.90;99.90;;;;;;4950154;29;20027;-66
2022/06/01 01:23:58;;;;;;;0.00;0.00;;;16.90;99.90;;;;;;4967132;29;20094;-66
2022/06/01 01:26:25;;;;;;;0.00;0.00;;;16.90;99.90;;;;;;4967128;29;20062;-67
2022/06/01 01:28:52;;;;;;;0.00;0.00;;;16.90;99.90;;;;;;4967005;29;20309;-66
2022/06/01 01:31:24;;;;;;;0.00;0.00;;;17.00;99.90;;;;;;4950341;29;20030;-66
2022/06/01 01:33:52;;;;;;;0.00;0.00;;;17.00;99.90;;;;;;4966649;29;20428;-66
2022/06/01 01:36:22;;;;;;;0.00;0.00;;;17.00;99.90;;;;;;4967273;29;20023;-66
2022/06/01 01:38:59;;;;;;;0.00;0.00;;;17.00;99.90;;;;;;4966623;29;20294;-67
2022/06/01 01:41:38;;;;;;;0.00;0.00;;;17.00;99.90;;;;;;4966922;29;20019;-67
2022/06/01 01:44:16;;;;;;;0.00;0.00;;;17.00;99.90;;;;;;4967209;29;20024;-67
2022/06/01 01:46:47;;;;;;;0.00;0.00;;;17.00;99.90;;;;;;4966596;29;20070;-66
2022/06/01 01:49:23;;;;;;;0.00;0.00;;;17.00;99.90;;;;;;4949820;29;20038;-66
2022/06/01 01:51:50;;;;;;;0.00;0.00;;;17.00;99.90;;;;;;4966197;29;20027;-67
2022/06/01 01:54:42;;;;;;;0.00;0.00;;;17.00;99.90;;;;;;4966642;29;20046;-66
2022/06/01 01:57:29;;;;;;;0.00;0.00;;;17.00;99.90;;;;;;4966594;29;20030;-66
2022/06/01 02:00:17;;;;;;;0.00;0.00;;;17.00;99.90;;;;;;4966291;29;20022;-66
2022/06/01 02:03:06;;;;;;;0.00;0.00;;;17.00;99.90;;;;;;4966230;29;20082;-67
2022/06/01 02:08:21;;;;;;;0.00;0.00;;;16.90;99.90;;;;;;4966459;29;20218;-66
2022/06/01 02:13:32;;;;;;;0.00;0.00;;;16.90;99.90;;;;;;4966606;29;20034;-67
2022/06/01 02:15:59;;;;;;;0.00;0.00;;;16.80;99.90;;;;;;4966283;29;20102;-66
2022/06/01 02:18:34;;;;;;;0.00;0.00;;;16.80;99.90;;;;;;4966341;29;20187;-66
2022/06/01 02:21:09;;;;;;;0.00;0.00;;;16.80;99.90;;;;;;4966734;29;20046;-66
2022/06/01 02:23:36;;;;;;;0.00;0.00;;;16.70;99.90;;;;;;4966002;29;20030;-67
2022/06/01 02:26:02;;;;;;;0.00;0.00;;;16.70;99.90;;;;;;4949280;29;20332;-66
2022/06/01 02:28:29;;;;;;;0.00;0.00;;;16.70;99.90;;;;;;4949286;29;20023;-66
2022/06/01 02:30:56;;;;;;;0.00;0.00;;;16.60;99.90;;;;;;4965838;29;20035;-66
2022/06/01 02:33:26;;;;;;;0.00;0.00;;;16.60;99.90;;;;;;4966040;29;20023;-67
2022/06/01 02:35:54;;;;;;;0.00;0.00;;;16.60;99.90;;;;;;4948802;29;20086;-66
2022/06/01 02:38:29;;;;;;;0.00;0.00;;;16.50;99.90;;;;;;4965909;29;20046;-67
2022/06/01 02:40:55;;;;;;;0.00;0.00;;;16.50;99.90;;;;;;4965558;29;20042;-67
2022/06/01 02:43:20;;;;;;;0.00;0.00;;;16.50;99.90;;;;;;4965822;29;20027;-67
2022/06/01 02:45:46;;;;;;;0.00;0.00;;;16.50;99.90;;;;;;4948451;29;20019;-67
2022/06/01 02:48:12;;;;;;;0.00;0.00;;;16.50;99.90;;;;;;4948855;29;20127;-66
2022/06/01 02:50:38;;;;;;;0.00;0.00;;;16.50;99.90;;;;;;4948460;29;20023;-66
2022/06/01 02:53:05;;;;;;;0.00;0.00;;;16.50;99.90;;;;;;4965433;29;20081;-65
2022/06/01 02:55:32;;;;;;;0.00;0.00;;;16.50;99.90;;;;;;4965815;29;20023;-66
2022/06/01 02:57:58;;;;;;;0.00;0.00;;;16.50;99.90;;;;;;4965421;29;20019;-65
2022/06/01 03:00:33;;;;;;;0.00;0.00;;;16.50;99.90;;;;;;4965599;29;20294;-65
2022/06/01 03:03:00;;;;;;;0.00;0.00;;;16.50;99.90;;;;;;4965082;29;20049;-65
2022/06/01 03:05:30;;;;;;;0.00;0.00;;;16.50;99.90;;;;;;4965424;29;20313;-66
2022/06/01 03:07:56;;;;;;;0.00;0.00;;;16.40;99.90;;;;;;4964804;29;20027;-66
2022/06/01 03:10:22;;;;;;;0.00;0.00;;;16.40;99.90;;;;;;4965545;29;20031;-66
2022/06/01 03:12:48;;;;;;;0.00;0.00;;;16.40;99.90;;;;;;4964931;29;20031;-66
2022/06/01 03:15:17;;;;;;;0.00;0.00;;;16.40;99.90;;;;;;4965473;29;20049;-66
2022/06/01 03:17:43;;;;;;;0.00;0.00;;;16.30;99.90;;;;;;4964851;29;20026;-67
2022/06/01 03:20:11;;;;;;;0.00;0.00;;;16.30;99.90;;;;;;4965355;29;20015;-66
2022/06/01 03:22:39;;;;;;;0.00;0.00;;;16.30;99.90;;;;;;4964652;28;20049;-70
2022/06/01 03:25:07;;;;;;;0.00;0.00;;;16.30;99.90;;;;;;4948059;29;20023;-66
2022/06/01 03:27:34;;;;;;;0.00;0.00;;;16.30;99.90;;;;;;4965000;29;20038;-66
2022/06/01 03:30:00;;;;;;;0.00;0.00;;;16.30;99.90;;;;;;4964937;29;20026;-66
2022/06/01 03:32:26;;;;;;;0.00;0.00;;;16.30;99.90;;;;;;4965129;29;20217;-66
2022/06/01 03:34:51;;;;;;;0.00;0.00;;;16.30;99.90;;;;;;4947496;29;20027;-67
2022/06/01 03:37:17;;;;;;;0.00;0.00;;;16.30;99.90;;;;;;4948058;29;20034;-66
2022/06/01 03:39:43;;;;;;;0.00;0.00;;;16.30;99.90;;;;;;4964793;29;20113;-66
2022/06/01 03:42:08;;;;;;;0.00;0.00;;;16.30;99.90;;;;;;4964844;29;20027;-65
2022/06/01 03:47:18;;;;;;;0.00;0.00;;;16.30;99.90;;;;;;4964690;29;20021;-66
2022/06/01 03:49:44;;;;;;;0.00;0.00;;;16.30;99.90;;;;;;4964325;29;20023;-66
2022/06/01 03:52:11;;;;;;;0.00;0.00;;;16.40;99.90;;;;;;4947634;29;20097;-66
2022/06/01 03:54:37;;;;;;;0.00;0.00;;;16.40;99.90;;;;;;4964970;29;20027;-66
2022/06/01 03:57:03;;;;;;;0.00;0.00;;;16.40;99.90;;;;;;4964582;29;20026;-66
2022/06/01 03:59:30;;;;;;;0.00;0.00;;;16.40;99.90;;;;;;4964456;29;20023;-66
2022/06/01 04:02:03;;;;;;;0.00;0.00;;;16.40;99.90;;;;;;4964210;29;20306;-66
2022/06/01 04:04:29;;;;;;;0.00;0.00;;;16.40;99.90;;;;;;4964848;29;20091;-66
2022/06/01 04:06:54;;;;;;;0.00;0.00;;;16.40;99.90;;;;;;4964494;29;20046;-66
2022/06/01 04:09:20;;;;;;;0.00;0.00;;;16.40;99.90;;;;;;4964947;29;20027;-67
2022/06/01 04:11:46;;;;;;;0.00;0.00;;;16.40;99.90;;;;;;4964315;29;20031;-67
2022/06/01 04:14:11;;;;;;;0.00;0.00;;;16.40;99.90;;;;;;4964738;29;20038;-66
2022/06/01 04:16:37;;;;;;;0.00;0.00;;;16.50;99.90;;;;;;4964708;29;20122;-66
2022/06/01 04:19:03;;;;;;;0.00;0.00;;;16.50;99.90;;;;;;4964210;29;20024;-67
2022/06/01 04:21:33;;;;;;;0.00;0.00;;;16.40;99.90;;;;;;4964775;29;20023;-66
2022/06/01 04:24:02;;;;;;;0.00;0.00;;;16.40;99.90;;;;;;4964221;29;20024;-66
2022/06/01 04:26:28;;;;;;;0.00;0.00;;;16.50;99.90;;;;;;4947343;29;20250;-66
2022/06/01 04:28:54;;;;;;;0.00;0.00;;;16.50;99.90;;;;;;4964089;29;20038;-66
2022/06/01 04:31:21;;;;;;;0.00;0.00;;;16.50;99.90;;;;;;4964331;29;20294;-65
2022/06/01 04:33:46;;;;;;;0.00;0.00;;;16.50;99.90;;;;;;4963915;28;20230;-66
2022/06/01 04:36:12;;;;;;;0.00;0.00;;;16.50;99.90;;;;;;4968667;29;20023;-66
2022/06/01 04:38:38;;;;;;;0.00;0.00;;;16.50;99.90;;;;;;4951452;29;20062;-66
2022/06/01 04:41:04;;;;;;;0.00;0.00;;;16.50;99.90;;;;;;4951374;29;20027;-67
2022/06/01 04:43:29;;;;;;;0.00;0.00;;;16.50;99.90;;;;;;4968790;29;20046;-67
2022/06/01 04:45:56;;;;;;;0.00;0.00;;;16.60;99.90;;;;;;4968050;29;20027;-67
2022/06/01 04:48:23;;;;;;;0.00;0.00;;;16.60;99.90;;;;;;4968457;29;20019;-66
2022/06/01 04:50:50;;;;;;;0.00;0.00;;;16.60;99.90;;;;;;4951105;29;20019;-67
2022/06/01 04:53:17;;;;;;;0.00;0.00;;;16.60;99.90;;;;;;4968647;29;20034;-66
2022/06/01 04:55:44;;;;;;;0.00;0.00;;;16.60;99.90;;;;;;4951957;29;20098;-66
2022/06/01 04:58:11;;;;;;;0.00;0.00;;;16.70;99.90;;;;;;4968562;29;20107;-65
2022/06/01 05:00:37;;;;;;;0.00;0.00;;;16.70;99.90;;;;;;4968382;29;20023;-66
2022/06/01 05:03:04;;;;;;;0.00;0.00;;;16.70;99.90;;;;;;4942418;29;20078;-66
2022/06/01 05:05:30;;;;;;;0.00;0.00;;;16.70;99.90;;;;;;4949153;29;20019;-67
2022/06/01 05:07:56;;;;;;;0.00;0.00;;;16.80;99.90;;;;;;4948712;29;20242;-67
2022/06/01 05:10:22;;;;;;;0.00;0.00;;;16.80;99.90;;;;;;4948992;29;20023;-67
2022/06/01 05:12:50;;;;;;;0.00;0.00;;;16.80;99.90;;;;;;4931436;29;20031;-67
2022/06/01 05:15:16;;;;;;;0.00;0.00;;;16.80;99.90;;;;;;4948843;29;20020;-67
2022/06/01 05:17:42;;;;;;;0.00;0.00;;;16.90;99.90;;;;;;4948532;29;20034;-67
2022/06/01 05:20:09;;;;;;;0.00;0.00;;;16.90;99.90;;;;;;4931348;29;20047;-67
2022/06/01 05:22:35;;;;;;;0.00;0.00;;;16.90;99.90;;;;;;4931631;29;20099;-66
2022/06/01 05:25:01;;;;;;;0.00;0.00;;;16.90;99.90;;;;;;4931092;29;20209;-67
2022/06/01 05:27:27;;;;;;;0.00;0.00;;;17.00;99.90;;;;;;4948035;29;20023;-67
2022/06/01 05:29:52;;;;;;;0.00;0.00;;;17.10;99.90;;;;;;4947844;29;20082;-67
2022/06/01 05:32:18;;;;;;;0.00;0.00;;;17.10;99.90;;;;;;4948427;29;20329;-67
2022/06/01 05:34:44;;;;;;;0.00;0.00;;;17.20;99.90;;;;;;4931270;29;20032;-67
2022/06/01 05:37:10;;;;;;;0.00;0.00;;;17.20;99.90;;;;;;4947912;29;20103;-67
2022/06/01 05:39:36;;;;;;;0.00;0.00;;;17.20;99.90;;;;;;4948449;29;20024;-67
2022/06/01 05:42:01;;;;;;;0.00;0.00;;;17.30;99.90;;;;;;4948030;29;20091;-66
2022/06/01 05:44:27;;;;;;;0.00;0.00;;;17.30;99.90;;;;;;4948031;29;20027;-66
2022/06/01 05:46:58;;;;;;;0.00;0.00;;;17.30;99.90;;;;;;4946701;29;20087;-66
2022/06/01 05:49:24;;;;;;;0.00;0.00;;;17.40;99.90;;;;;;4947882;29;20023;-66
2022/06/01 05:51:50;;;;;;;0.00;0.00;;;17.40;99.90;;;;;;4947445;29;20083;-66
2022/06/01 05:54:15;;;;;;;0.00;0.00;;;17.50;99.90;;;;;;4947657;29;20034;-66
2022/06/01 05:56:41;;;;;;;0.00;0.00;;;17.60;99.90;;;;;;4947779;29;20024;-66
2022/06/01 05:59:07;;;;;;;0.00;0.00;;;17.60;99.90;;;;;;4947198;29;20330;-66
2022/06/01 06:01:33;;;;;;;0.00;0.00;;;17.60;99.90;;;;;;4930794;29;20273;-66
2022/06/01 06:03:58;;;;;;;0.00;0.00;;;17.70;99.90;;;;;;4962887;29;20051;-66
2022/06/01 06:06:24;;;;;;;0.00;0.00;;;17.70;99.90;;;;;;4966552;29;20042;-66
2022/06/01 06:08:56;;;;;;;0.00;0.00;;;17.90;99.90;;;;;;4966204;29;20082;-66
2022/06/01 06:11:24;;;;;;;0.00;0.00;;;18.10;99.90;;;;;;4966840;29;20025;-65
2022/06/01 06:13:50;;;;;;;0.00;0.00;;;18.50;99.90;;;;;;4966167;29;20035;-67
2022/06/01 06:16:16;;;;;;;0.00;0.00;;;18.80;99.90;;;;;;4949308;29;20034;-65
2022/06/01 06:18:42;;;;;;;0.00;0.00;;;19.30;99.90;;;;;;4966873;29;20114;-65
2022/06/01 06:21:08;;;;;;;0.00;0.00;;;19.70;99.90;;;;;;4966000;29;20023;-65
2022/06/01 06:23:34;;;;;;;0.00;0.00;;;20.00;99.90;;;;;;4966640;29;20038;-65
2022/06/01 06:26:00;;;;;;;0.00;0.00;;;20.30;99.20;;;;;;4966205;29;20019;-66
2022/06/01 06:28:26;;;;;;;0.00;0.00;;;20.50;98.20;;;;;;4948738;29;20034;-65
2022/06/01 06:30:52;;;;;;;0.00;0.00;;;20.70;98.00;;;;;;4965578;29;20027;-66
2022/06/01 06:33:18;;;;;;;0.00;0.00;;;20.80;97.10;;;;;;4949164;29;20099;-65
2022/06/01 06:35:44;;;;;;;0.00;0.00;;;20.90;96.80;;;;;;4966103;29;20023;-65
2022/06/01 06:38:10;;;;;;;0.00;0.00;;;21.10;96.40;;;;;;4965806;29;20082;-65
2022/06/01 06:40:37;;;;;;;0.00;0.00;;;21.20;96.50;;;;;;4966264;29;20019;-65
2022/06/01 06:43:04;;;;;;;0.00;0.00;;;21.30;96.20;;;;;;4965375;29;20306;-65
2022/06/01 06:45:30;;;;;;;0.00;0.00;;;21.40;95.30;;;;;;4965812;29;20324;-65
2022/06/01 06:47:56;;;;;;;0.00;0.00;;;21.60;95.10;;;;;;4965473;29;20031;-66
2022/06/01 06:50:22;;;;;;;0.00;0.00;;;21.70;95.40;;;;;;4965318;29;20078;-65
2022/06/01 06:52:48;;;;;;;0.00;0.00;;;21.80;94.30;;;;;;4965598;29;20062;-65
2022/06/01 06:55:14;;;;;;;0.00;0.00;;;21.80;94.20;;;;;;4948066;29;20290;-65
2022/06/01 06:57:43;;;;;;;0.00;0.00;;;21.90;93.70;;;;;;4948118;29;20051;-66
2022/06/01 07:00:10;;;;;;;0.00;0.00;;;22.10;93.60;;;;;;4965238;29;20026;-66
2022/06/01 07:02:36;;;;;;;0.00;0.00;;;22.30;93.60;;;;;;4948128;29;20333;-66
2022/06/01 07:05:05;;;;;;;0.00;0.00;;;22.50;93.30;;;;;;4965084;29;20042;-66
2022/06/01 07:07:31;;;;;;;0.00;0.00;;;22.60;93.40;;;;;;4948372;29;20210;-66
2022/06/01 07:09:57;;;;;;;0.00;0.00;;;22.80;92.90;;;;;;4965089;29;20023;-66
2022/06/01 07:12:23;;;;;;;0.00;0.00;;;22.90;92.90;;;;;;4965734;29;20114;-67
2022/06/01 07:14:48;;;;;;;0.00;0.00;;;23.00;92.80;;;;;;4965452;29;20027;-66
2022/06/01 07:17:14;;;;;;;0.00;0.00;;;23.10;92.10;;;;;;4965258;29;20038;-66
2022/06/01 07:19:40;;;;;;;0.00;0.00;;;22.90;91.90;;;;;;4965253;29;20034;-66
2022/06/01 07:22:05;;;;;;;0.00;0.00;;;22.60;91.30;;;;;;4947668;29;20054;-66
2022/06/01 07:24:31;;;;;;;0.00;0.00;;;22.10;92.10;;;;;;4948091;29;20102;-66
2022/06/01 07:26:57;;;;;;;0.00;0.00;;;21.70;92.50;;;;;;4965001;29;20030;-67
2022/06/01 07:29:22;;;;;;;0.00;0.00;;;21.50;92.90;;;;;;4948203;29;20047;-66
2022/06/01 07:31:50;;;;;;;0.00;0.00;;;21.20;93.60;;;;;;4965344;29;20046;-66
2022/06/01 07:34:16;;;;;;;0.00;0.00;;;21.00;94.00;;;;;;4964937;29;20110;-66
2022/06/01 07:36:43;;;;;;;0.00;0.00;;;20.90;94.50;;;;;;4948173;29;20049;-65
2022/06/01 07:44:52;;;;;;;0.00;0.00;;;20.70;94.80;;;;;;4945514;29;20105;-65
2022/06/01 07:47:19;;;;;;;0.00;0.00;;;20.60;94.90;;;;;;4928298;29;20026;-65
2022/06/01 07:49:44;;;;;;;0.00;0.00;;;20.60;95.00;;;;;;4945678;29;20024;-65
2022/06/01 07:52:12;;;;;;;0.00;0.00;;;20.60;94.90;;;;;;4945174;29;20023;-65
2022/06/01 07:54:39;;;;;;;0.00;0.00;;;20.70;95.20;;;;;;4945509;29;20288;-65
2022/06/01 07:57:05;;;;;;;0.00;0.00;;;20.70;94.80;;;;;;4928212;29;20298;-66
2022/06/01 07:59:32;;;;;;;0.00;0.00;;;20.80;94.20;;;;;;4945466;29;20103;-66
2022/06/01 08:01:58;;;;;;;0.00;0.00;;;21.00;94.10;;;;;;4945324;29;20093;-68
2022/06/01 08:04:23;;;;;;;0.00;0.00;;;21.10;93.80;;;;;;4944959;29;20330;-66
2022/06/01 08:06:49;;;;;;;0.00;0.00;;;21.30;93.10;;;;;;4945515;29;20028;-65
2022/06/01 08:09:15;;;;;;;0.00;0.00;;;21.70;92.30;;;;;;4944692;29;20026;-66
2022/06/01 08:14:25;;;;;;;0.00;0.00;;;23.10;91.20;;;;;;4945368;29;20027;-66
2022/06/01 08:16:51;;;;;;;0.00;0.00;;;24.00;91.30;;;;;;4945543;29;20027;-66
2022/06/01 08:19:17;;;;;;;0.00;0.00;;;24.70;87.70;;;;;;4945173;29;20020;-67
2022/06/01 08:21:44;;;;;;;0.00;0.00;;;25.40;84.90;;;;;;4945372;29;20278;-66
2022/06/01 08:24:10;;;;;;;0.00;0.00;;;25.80;81.40;;;;;;4945274;29;20088;-67
2022/06/01 08:26:36;;;;;;;0.00;0.00;;;26.20;78.00;;;;;;4945194;29;20303;-67
2022/06/01 08:29:03;;;;;;;0.00;0.00;;;26.50;77.10;;;;;;4928172;29;20038;-74
2022/06/01 08:31:34;;;;;;;0.00;0.00;;;26.70;78.30;;;;;;4928475;29;20023;-68
2022/06/01 08:34:02;;;;;;;0.00;0.00;;;27.00;77.10;;;;;;4928462;29;20079;-67
2022/06/01 08:36:27;;;;;;;0.00;0.00;;;27.40;73.60;;;;;;4945156;29;20024;-69
2022/06/01 08:38:54;;;;;;;0.00;0.00;;;28.00;77.10;;;;;;4945226;29;20028;-67
2022/06/01 08:41:22;;;;;;;0.00;0.00;;;28.70;77.40;;;;;;4944731;29;20023;-67
2022/06/01 08:43:57;;;;;;;0.00;0.00;;;28.90;71.10;;;;;;4945354;29;20051;-69
2022/06/01 08:46:26;;;;;;;0.00;0.00;;;28.60;70.20;;;;;;4927832;29;20196;-69
2022/06/01 08:49:02;;;;;;;0.00;0.00;;;28.40;69.20;;;;;;4928197;29;20026;-68
2022/06/01 08:51:30;;;;;;;0.00;0.00;;;28.70;70.10;;;;;;4944992;29;20019;-68
2022/06/01 08:53:58;;;;;;;0.00;0.00;;;29.20;69.70;;;;;;4945267;29;20031;-68
2022/06/01 08:56:59;;;;;;;0.00;0.00;;;29.10;67.80;;;;;;4944791;29;20101;-68
2022/06/01 08:59:50;;;;;;;0.00;0.00;;;29.60;66.80;;;;;;4914034;29;20303;-68
2022/06/01 09:02:30;;;;;;;0.00;0.00;;;29.70;66.40;;;;;;4944570;29;20298;-68
2022/06/01 09:05:14;;;;;;;0.00;0.00;;;29.80;67.20;;;;;;4928182;29;20023;-68
2022/06/01 09:07:46;;;;;;;0.00;0.00;;;29.50;65.30;;;;;;4945043;29;20083;-69
2022/06/01 09:10:31;;;;;;;0.00;0.00;;;29.40;64.50;;;;;;4944747;29;20031;-69
2022/06/01 09:13:03;;;;;;;0.00;0.00;;;29.60;66.10;;;;;;4945110;29;20302;-69
2022/06/01 09:15:38;;;;;;;0.00;0.00;;;30.20;62.50;;;;;;4944378;29;20028;-69
2022/06/01 09:18:04;;;;;;;0.00;0.00;;;30.80;60.60;;;;;;4945067;29;20023;-69
2022/06/01 09:23:15;;;;;;;0.00;0.00;;;31.10;58.10;;;;;;4947776;29;20206;-69
2022/06/01 09:25:53;;;;;;;0.00;0.00;;;31.50;56.90;;;;;;4948405;29;20027;-70
2022/06/01 09:28:28;;;;;;;0.00;0.00;;;31.80;56.20;;;;;;4930817;29;20024;-70
2022/06/01 09:31:00;;;;;;;0.00;0.00;;;32.00;57.20;;;;;;4947883;29;20019;-70
2022/06/01 09:33:30;;;;;;;0.00;0.00;;;32.10;55.20;;;;;;4930823;29;20407;-70
2022/06/01 09:36:08;;;;;;;0.00;0.00;;;32.30;56.50;;;;;;4947939;29;20023;-70
2022/06/01 09:38:39;;;;;;;0.00;0.00;;;33.00;55.90;;;;;;4930962;29;20107;-70
2022/06/01 09:41:08;;;;;;;0.00;0.00;;;32.80;56.10;;;;;;4948205;29;20019;-69
2022/06/01 09:43:37;;;;;;;0.00;0.00;;;32.80;55.40;;;;;;4947938;29;20095;-69
2022/06/01 09:46:02;;;;;;;0.00;0.00;;;32.90;55.50;;;;;;4948043;29;20054;-69
2022/06/01 09:48:34;;;;;;;0.00;0.00;;;33.00;54.60;;;;;;4947676;29;20551;-70
2022/06/01 09:51:21;;;;;;;0.00;0.00;;;33.10;53.50;;;;;;4930865;29;20024;-71
2022/06/01 09:54:23;;;;;;;0.00;0.00;;;33.20;53.60;;;;;;4947687;29;20214;-72
2022/06/01 09:56:49;;;;;;;0.00;0.00;;;33.20;52.90;;;;;;4947914;29;20178;-70
2022/06/01 10:07:44;;;;;;;0.00;0.00;;;33.90;50.10;;;;;;4947491;29;20030;-70
2022/06/01 10:10:22;;;;;;;0.00;0.00;;;34.20;51.10;;;;;;4947299;29;20031;-74
2022/06/01 10:12:55;;;;;;;0.00;0.00;;;34.10;51.30;;;;;;4947558;29;20020;-70
2022/06/01 10:15:25;;;;;;;0.00;0.00;;;34.70;51.30;;;;;;4947072;29;20024;-71
2022/06/01 10:17:58;;;;;;;0.00;0.00;;;34.90;49.60;;;;;;4947195;29;20024;-70
2022/06/01 10:20:37;;;;;;;0.00;0.00;;;35.10;50.60;;;;;;4946947;29;20023;-71
2022/06/01 10:23:24;;;;;;;0.00;0.00;;;34.80;48.40;;;;;;4947354;29;20038;-71
2022/06/01 10:25:54;;;;;;;0.00;0.00;;;34.80;48.70;;;;;;4930079;29;20026;-71
2022/06/01 10:28:39;;;;;;;0.00;0.00;;;35.40;53.40;;;;;;4929632;29;20073;-71
2022/06/01 10:31:16;;;;;;;0.00;0.00;;;36.90;52.10;;;;;;4930188;29;20031;-71
2022/06/01 10:33:49;;;;;;;0.00;0.00;;;37.00;46.90;;;;;;4946589;29;20040;-68
2022/06/01 10:36:26;;;;;;;0.00;0.00;;;36.80;45.30;;;;;;4946385;29;20032;-68
2022/06/01 10:39:00;;;;;;;0.00;0.00;;;35.60;45.90;;;;;;4946939;29;20073;-68
2022/06/01 10:41:34;;;;;;;0.00;0.00;;;35.70;48.30;;;;;;4946469;29;20046;-69
2022/06/01 10:44:44;;;;;;;0.00;0.00;;;36.40;50.30;;;;;;4946847;29;20027;-70
2022/06/01 10:47:30;;;;;;;0.00;0.00;;;38.80;48.80;;;;;;4925084;29;20032;-70
2022/06/01 10:50:18;;;;;;;0.00;0.00;;;39.80;45.30;;;;;;4929910;29;20027;-70
2022/06/01 10:52:50;;;;;;;0.00;0.00;;;38.90;44.50;;;;;;4946948;29;20046;-70
2022/06/01 10:55:31;;;;;;;0.00;0.00;;;39.50;45.20;;;;;;4929483;29;20028;-70
2022/06/01 10:57:59;;;;;;;0.00;0.00;;;40.40;45.40;;;;;;4947133;29;20070;-70
2022/06/01 11:01:04;;;;;;;0.00;0.00;;;39.90;44.60;;;;;;4946729;29;20250;-70
2022/06/01 11:03:42;;;;;;;0.00;0.00;;;39.00;42.50;;;;;;4916527;29;20055;-70
2022/06/01 11:06:49;;;;;;;0.00;0.00;;;37.90;44.30;;;;;;4929693;29;20031;-69
2022/06/01 11:09:50;;;;;;;0.00;0.00;;;38.20;44.80;;;;;;4946034;29;20028;-69
2022/06/01 11:12:56;;;;;;;0.00;0.00;;;38.60;48.20;;;;;;4929174;29;20093;-69
2022/06/01 11:15:30;;;;;;;0.00;0.00;;;39.00;43.70;;;;;;4946133;29;20051;-69
2022/06/01 11:18:22;;;;;;;0.00;0.00;;;37.80;42.60;;;;;;4946422;29;20316;-69
2022/06/01 11:21:00;;;;;;;0.00;0.00;;;37.50;42.60;;;;;;4929420;29;20042;-69
2022/06/01 11:24:20;;;;;;;0.00;0.00;;;38.00;47.50;;;;;;4945702;29;20325;-69
2022/06/01 11:26:54;;;;;;;0.00;0.00;;;38.10;42.40;;;;;;4887493;29;20218;-70
2022/06/01 11:29:20;;;;;;;0.00;0.00;;;37.00;43.00;;;;;;4936565;29;20098;-69
2022/06/01 11:31:49;;;;;;;0.00;0.00;;;35.90;42.80;;;;;;4946039;29;20302;-69
2022/06/01 11:34:47;;;;;;;0.00;0.00;;;34.80;42.30;;;;;;4945840;29;20046;-75
2022/06/01 11:37:22;;;;;;;0.00;0.00;;;33.30;44.40;;;;;;4934724;29;20038;-69
2022/06/01 11:39:59;;;;;;;0.00;0.00;;;32.70;46.50;;;;;;4946046;29;20053;-68
2022/06/01 11:42:33;;;;;;;0.00;0.00;;;31.80;45.20;;;;;;4945808;29;20024;-68
2022/06/01 11:45:20;;;;;;;0.00;0.00;;;31.10;46.20;;;;;;4945034;29;20027;-69
2022/06/01 11:47:53;;;;;;;0.00;0.00;;;30.40;46.90;;;;;;4929108;29;20030;-67
2022/06/01 11:50:25;;;;;;;0.00;0.00;;;29.80;47.90;;;;;;4945839;29;20047;-68
2022/06/01 11:52:56;;;;;;;0.00;0.00;;;29.40;49.10;;;;;;4945996;29;20346;-67
2022/06/01 11:55:24;;;;;;;0.00;0.00;;;29.10;49.70;;;;;;4928579;29;20110;-67
2022/06/01 11:58:13;;;;;;;0.00;0.00;;;28.70;48.20;;;;;;4945970;29;20019;-67
2022/06/01 12:00:48;;;;;;;0.00;0.00;;;28.40;48.00;;;;;;4945254;29;20020;-67
2022/06/01 12:03:19;;;;;;;0.00;0.00;;;28.10;46.00;;;;;;4945645;29;20051;-68
2022/06/01 12:06:35;;;;;;;0.00;0.00;;;27.90;48.20;;;;;;4945739;29;20020;-68
2022/06/01 12:09:03;;;;;;;0.00;0.00;;;27.80;48.60;;;;;;4924477;29;20074;-68
2022/06/01 12:11:40;;;;;;;0.00;0.00;;;27.60;47.60;;;;;;4945567;29;20034;-68
2022/06/01 12:14:27;;;;;;;0.00;0.00;;;27.50;46.40;;;;;;4945541;29;20334;-68
2022/06/01 12:17:17;;;;;;;0.00;0.00;;;27.20;46.00;;;;;;4945591;29;20031;-68
2022/06/01 12:19:49;;;;;;;0.00;0.00;;;27.10;46.20;;;;;;4945655;29;20019;-68
2022/06/01 12:28:36;;;;;;;0.00;0.00;;;26.90;45.40;;;;;;4945051;29;20095;-67
2022/06/01 12:31:17;;;;;;;0.00;0.00;;;26.70;45.30;;;;;;4928598;29;20102;-68
2022/06/01 12:34:01;;;;;;;0.00;0.00;;;26.70;45.80;;;;;;4945110;29;20082;-67
2022/06/01 12:36:37;;;;;;;0.00;0.00;;;26.60;47.40;;;;;;4945360;29;20218;-66
2022/06/01 12:39:17;;;;;;;0.00;0.00;;;26.60;49.30;;;;;;4945268;29;20390;-67
2022/06/01 12:41:47;;;;;;;0.00;0.00;;;26.60;48.00;;;;;;4945083;29;20404;-66
2022/06/01 12:44:13;;;;;;;0.00;0.00;;;26.70;50.40;;;;;;4945439;29;20050;-66
2022/06/01 12:46:43;;;;;;;0.00;0.00;;;26.60;46.80;;;;;;4928088;29;20055;-67
2022/06/01 12:49:30;;;;;;;0.00;0.00;;;26.60;48.50;;;;;;4928327;29;20019;-67
2022/06/01 12:52:18;;;;;;;0.00;0.00;;;26.60;47.80;;;;;;4928581;29;20284;-68
2022/06/01 12:54:55;;;;;;;0.00;0.00;;;26.50;47.70;;;;;;4945005;29;20035;-67
2022/06/01 12:57:30;;;;;;;0.00;0.00;;;26.40;48.80;;;;;;4931710;29;20023;-68
2022/06/01 13:00:12;;;;;;;0.00;0.00;;;26.40;48.10;;;;;;4949039;29;20023;-67
2022/06/01 13:02:40;;;;;;;0.00;0.00;;;26.40;48.80;;;;;;4931479;29;20174;-68
2022/06/01 13:05:10;;;;;;;0.00;0.00;;;26.30;48.10;;;;;;4949066;29;20099;-67
2022/06/01 13:07:40;;;;;;;0.00;0.00;;;26.20;47.10;;;;;;4948485;29;20028;-67
2022/06/01 13:10:09;;;;;;;0.00;0.00;;;26.20;47.50;;;;;;4931875;29;20020;-67
2022/06/01 13:12:34;;;;;;;0.00;0.00;;;26.20;48.70;;;;;;4948196;29;20032;-67
2022/06/01 13:15:27;;;;;;;0.00;0.00;;;26.20;48.70;;;;;;4948478;29;20214;-67
2022/06/01 13:17:54;;;;;;;0.00;0.00;;;26.20;49.10;;;;;;4929844;29;20055;-67
2022/06/01 13:20:46;;;;;;;0.00;0.00;;;26.20;48.70;;;;;;4948567;29;20047;-68
2022/06/01 13:23:33;;;;;;;0.00;0.00;;;26.20;50.40;;;;;;4948305;29;20040;-67
2022/06/01 13:26:01;;;;;;;;;;;26.30;50.10;;;;;;4948929;29;20095;-67
2022/06/01 13:28:26;;;;;;;0.00;0.00;;;26.40;51.80;;;;;;4930501;29;19950;-68
2022/06/01 13:30:52;;;;;;;0.00;0.00;;;26.40;51.90;;;;;;4931475;29;20098;-68
2022/06/01 13:33:41;;;;;;;0.00;0.00;;;26.40;51.00;;;;;;4931174;29;20046;-68
2022/06/01 13:36:10;;;;;;;0.00;0.00;;;26.60;51.40;;;;;;4931366;29;20031;-67
2022/06/01 13:38:39;;;;;;;0.00;0.00;;;26.50;48.60;;;;;;4947917;29;20047;-68
2022/06/01 13:41:19;;;;;;;0.00;0.00;;;26.50;50.20;;;;;;4931166;29;20046;-68
2022/06/01 13:43:47;;;;;;;0.00;0.00;;;26.40;50.60;;;;;;4930617;29;20079;-68
2022/06/01 13:46:16;;;;;;;0.00;0.00;;;26.40;50.20;;;;;;4931037;29;20069;-68